Time;durP1;ratioP1;P1;durP2;ratioP2;P2;SDS_P1;SDS_P2;PMS_P1;PMS_P2;Temp;Humidity;BMP_temperature;BMP_pressure;BME280_temperature;BME280_humidity;BME280_pressure;Samples;Min_cycle;Max_cycle;Signal;HPM_P1;HPM_P2
2021/11/13 00:00:46;;;;;;;88.80;27.00;;;4.50;99.90;;;;;;5111425;28;20027;-73
2021/11/13 00:03:13;;;;;;;96.47;27.15;;;4.50;99.90;;;;;;5109213;28;20012;-73
2021/11/13 00:05:42;;;;;;;74.13;26.73;;;4.40;99.90;;;;;;5110904;28;20031;-73
2021/11/13 00:08:08;;;;;;;109.47;27.33;;;4.40;99.90;;;;;;5109541;28;20047;-73
2021/11/13 00:10:33;;;;;;;103.78;27.17;;;4.30;99.90;;;;;;5092513;28;20016;-73
2021/11/13 00:13:01;;;;;;;80.72;25.77;;;4.30;99.90;;;;;;5091619;28;20035;-73
2021/11/13 00:15:28;;;;;;;99.20;25.00;;;4.30;99.90;;;;;;5109513;28;20023;-72
2021/11/13 00:17:54;;;;;;;91.13;25.48;;;4.30;99.90;;;;;;5109078;28;20035;-73
2021/11/13 00:20:22;;;;;;;82.85;25.40;;;4.20;99.90;;;;;;5111107;28;20363;-73
2021/11/13 00:22:48;;;;;;;83.90;23.70;;;4.20;99.90;;;;;;5108316;28;20498;-72
2021/11/13 00:25:14;;;;;;;65.35;22.67;;;4.10;99.90;;;;;;5108710;28;20028;-73
2021/11/13 00:27:42;;;;;;;76.70;22.85;;;4.10;99.90;;;;;;5090783;28;20389;-73
2021/11/13 00:30:09;;;;;;;69.80;21.58;;;4.10;99.90;;;;;;5089071;28;20395;-73
2021/11/13 00:32:34;;;;;;;87.70;22.63;;;4.10;99.90;;;;;;5088700;28;20038;-73
2021/11/13 00:35:00;;;;;;;84.43;21.58;;;4.10;99.90;;;;;;5088675;28;20111;-73
2021/11/13 00:37:26;;;;;;;63.60;20.92;;;4.00;99.90;;;;;;5090592;28;20024;-73
2021/11/13 00:39:52;;;;;;;89.35;21.08;;;4.00;99.90;;;;;;5094912;28;20049;-73
2021/11/13 00:42:18;;;;;;;59.92;21.75;;;3.90;99.90;;;;;;5110112;28;20023;-72
2021/11/13 00:44:43;;;;;;;68.07;21.85;;;3.90;99.90;;;;;;5109094;28;20479;-72
2021/11/13 00:47:09;;;;;;;54.33;22.20;;;3.90;99.90;;;;;;5109104;28;20079;-73
2021/11/13 00:49:35;;;;;;;67.05;22.77;;;3.90;99.90;;;;;;5110663;28;20483;-73
2021/11/13 00:52:00;;;;;;;61.50;21.48;;;3.90;99.90;;;;;;5110376;28;20051;-73
2021/11/13 00:54:26;;;;;;;60.70;21.02;;;3.90;99.90;;;;;;5109985;28;20023;-73
2021/11/13 00:56:52;;;;;;;68.80;21.20;;;3.90;99.90;;;;;;5108910;28;20028;-73
2021/11/13 00:59:18;;;;;;;64.10;21.08;;;3.90;99.90;;;;;;5109331;28;20024;-73
2021/11/13 01:01:43;;;;;;;60.35;21.65;;;3.80;99.90;;;;;;5110776;28;20079;-73
2021/11/13 01:04:10;;;;;;;56.40;21.70;;;3.80;99.90;;;;;;5108476;28;20050;-73
2021/11/13 01:06:36;;;;;;;70.40;21.35;;;3.80;99.90;;;;;;5110628;28;20067;-73
2021/11/13 01:09:03;;;;;;;54.95;21.20;;;3.80;99.90;;;;;;5101063;28;20495;-73
2021/11/13 01:11:29;;;;;;;82.63;22.05;;;3.80;99.90;;;;;;5099421;28;20023;-73
2021/11/13 01:13:56;;;;;;;47.30;20.77;;;3.80;99.90;;;;;;5109963;28;20024;-73
2021/11/13 01:16:24;;;;;;;53.78;20.60;;;3.70;99.90;;;;;;5110244;28;20054;-73
2021/11/13 01:18:50;;;;;;;53.08;21.30;;;3.60;99.90;;;;;;5110311;28;20042;-73
2021/11/13 01:21:16;;;;;;;57.15;21.67;;;3.50;99.90;;;;;;5109063;28;20019;-73
2021/11/13 01:23:41;;;;;;;71.43;20.58;;;3.50;99.90;;;;;;5104057;28;20540;-73
2021/11/13 01:26:07;;;;;;;84.68;22.15;;;3.50;99.90;;;;;;5108436;28;20036;-73
2021/11/13 01:28:33;;;;;;;90.22;21.20;;;3.40;99.90;;;;;;5110566;28;20499;-73
2021/11/13 01:30:59;;;;;;;96.95;20.00;;;3.40;99.90;;;;;;5109771;28;20063;-72
2021/11/13 01:33:25;;;;;;;44.97;20.75;;;3.40;99.90;;;;;;5109909;28;20020;-73
2021/11/13 01:35:50;;;;;;;49.92;20.80;;;3.40;99.90;;;;;;5109905;28;20354;-73
2021/11/13 01:38:17;;;;;;;58.45;20.67;;;3.40;99.90;;;;;;5108976;28;20022;-73
2021/11/13 01:40:43;;;;;;;76.07;22.05;;;3.50;99.90;;;;;;5097167;28;20016;-73
2021/11/13 01:43:09;;;;;;;51.38;20.10;;;3.50;99.90;;;;;;5094545;28;20429;-73
2021/11/13 01:45:35;;;;;;;44.15;21.20;;;3.60;99.90;;;;;;5108784;28;20027;-73
2021/11/13 01:48:01;;;;;;;103.53;20.35;;;3.60;99.90;;;;;;5108665;28;20059;-73
2021/11/13 01:50:37;;;;;;;50.75;19.52;;;3.60;99.90;;;;;;5109979;28;20026;-73
2021/11/13 01:53:03;;;;;;;47.70;19.23;;;3.60;99.90;;;;;;5108135;28;20057;-73
2021/11/13 01:55:34;;;;;;;37.30;17.55;;;3.60;99.90;;;;;;5110090;28;20472;-73
2021/11/13 01:58:01;;;;;;;39.72;18.20;;;3.60;99.90;;;;;;5109660;28;20024;-73
2021/11/13 02:00:31;;;;;;;55.47;17.92;;;3.60;99.90;;;;;;5108931;28;20020;-73
2021/11/13 02:02:57;;;;;;;41.92;16.67;;;3.60;99.90;;;;;;5110567;28;20051;-73
2021/11/13 02:05:23;;;;;;;42.58;17.40;;;3.60;99.90;;;;;;5112226;28;20055;-73
2021/11/13 02:07:49;;;;;;;44.85;16.90;;;3.50;99.90;;;;;;5112531;28;20031;-73
2021/11/13 02:10:17;;;;;;;40.05;17.17;;;3.50;99.90;;;;;;5099083;28;20023;-73
2021/11/13 02:12:42;;;;;;;43.22;18.60;;;3.40;99.90;;;;;;5111364;28;20019;-73
2021/11/13 02:15:09;;;;;;;54.28;17.75;;;3.50;99.90;;;;;;5112083;28;20043;-73
2021/11/13 02:17:35;;;;;;;42.15;16.33;;;3.40;99.90;;;;;;5112053;28;20035;-73
2021/11/13 02:20:30;;;;;;;41.40;15.85;;;3.40;99.90;;;;;;5113376;28;20028;-72
2021/11/13 02:22:59;;;;;;;49.63;16.00;;;3.30;99.90;;;;;;5111943;28;20019;-72
2021/11/13 02:25:26;;;;;;;49.58;16.02;;;3.30;99.90;;;;;;5112895;28;20337;-72
2021/11/13 02:27:52;;;;;;;60.53;17.02;;;3.20;99.90;;;;;;5111994;28;20027;-72
2021/11/13 02:30:18;;;;;;;63.60;16.90;;;3.20;99.90;;;;;;5113461;28;20072;-72
2021/11/13 02:32:45;;;;;;;50.97;17.10;;;3.10;99.90;;;;;;5111239;28;20046;-72
2021/11/13 02:35:13;;;;;;;59.33;16.92;;;3.10;99.90;;;;;;5111895;28;20447;-72
2021/11/13 02:37:40;;;;;;;44.20;18.00;;;3.10;99.90;;;;;;5112794;28;20110;-72
2021/11/13 02:40:08;;;;;;;51.08;18.15;;;3.00;99.90;;;;;;5111046;28;20107;-72
2021/11/13 02:42:34;;;;;;;47.17;18.20;;;3.10;99.90;;;;;;5111891;28;20020;-72
2021/11/13 02:45:01;;;;;;;62.30;18.08;;;3.10;99.90;;;;;;5113056;28;20506;-72
2021/11/13 02:47:27;;;;;;;74.13;17.38;;;3.10;99.90;;;;;;5113045;28;20032;-72
2021/11/13 02:49:53;;;;;;;58.40;16.92;;;3.10;99.90;;;;;;5112810;28;20024;-73
2021/11/13 02:52:19;;;;;;;60.88;18.60;;;3.10;99.90;;;;;;5111466;28;20144;-73
2021/11/13 02:54:47;;;;;;;62.75;18.45;;;3.10;99.90;;;;;;5110908;28;20122;-73
2021/11/13 02:57:13;;;;;;;56.67;18.65;;;3.10;99.90;;;;;;5101856;28;20042;-72
2021/11/13 02:59:43;;;;;;;67.95;19.02;;;3.10;99.90;;;;;;5112502;28;20031;-72
2021/11/13 03:02:09;;;;;;;71.50;19.33;;;3.10;99.90;;;;;;5112873;28;20031;-72
2021/11/13 03:04:35;;;;;;;60.60;17.50;;;3.10;99.90;;;;;;5110560;28;20016;-73
2021/11/13 03:07:00;;;;;;;70.05;18.17;;;3.20;99.90;;;;;;5111163;28;20062;-72
2021/11/13 03:09:26;;;;;;;48.83;18.17;;;3.10;99.90;;;;;;5111759;28;20032;-72
2021/11/13 03:11:52;;;;;;;62.05;18.05;;;3.10;99.90;;;;;;5110456;28;20031;-72
2021/11/13 03:14:17;;;;;;;60.78;17.33;;;3.10;99.90;;;;;;5110712;28;20034;-72
2021/11/13 03:16:43;;;;;;;44.80;16.83;;;3.00;99.90;;;;;;5112118;28;20020;-72
2021/11/13 03:19:08;;;;;;;40.47;16.35;;;3.10;99.90;;;;;;5110970;28;20027;-72
2021/11/13 03:21:34;;;;;;;47.92;15.73;;;3.00;99.90;;;;;;5111859;28;20023;-72
2021/11/13 03:24:02;;;;;;;57.42;17.42;;;3.00;99.90;;;;;;5110159;28;20035;-72
2021/11/13 03:26:31;;;;;;;36.80;16.27;;;2.90;99.90;;;;;;5110544;28;20425;-72
2021/11/13 03:29:01;;;;;;;45.88;16.35;;;2.90;99.90;;;;;;5110908;28;20497;-72
2021/11/13 03:31:28;;;;;;;43.60;15.68;;;2.90;99.90;;;;;;5110665;28;20020;-72
2021/11/13 03:33:54;;;;;;;51.65;16.80;;;2.80;99.90;;;;;;5111391;28;20106;-73
2021/11/13 03:36:21;;;;;;;44.65;16.13;;;2.80;99.90;;;;;;5112214;28;20494;-72
2021/11/13 03:38:48;;;;;;;42.60;16.33;;;2.70;99.90;;;;;;5108610;28;20519;-72
2021/11/13 03:41:14;;;;;;;38.55;15.18;;;2.70;99.90;;;;;;5103568;28;20122;-72
2021/11/13 03:43:40;;;;;;;43.40;15.68;;;2.70;99.90;;;;;;5089554;28;20379;-72
2021/11/13 03:46:07;;;;;;;32.90;14.98;;;2.70;99.90;;;;;;5093431;28;20085;-72
2021/11/13 03:48:33;;;;;;;49.25;15.63;;;2.60;99.90;;;;;;5111721;28;20027;-72
2021/11/13 03:50:59;;;;;;;44.72;15.57;;;2.60;99.90;;;;;;5111813;28;20061;-72
2021/11/13 03:53:24;;;;;;;48.83;16.67;;;2.60;99.90;;;;;;5110086;28;20055;-72
2021/11/13 03:55:50;;;;;;;80.18;18.40;;;2.60;99.90;;;;;;5109344;28;20045;-72
2021/11/13 03:58:15;;;;;;;49.70;16.80;;;2.60;99.90;;;;;;5110367;28;20024;-72
2021/11/13 04:00:41;;;;;;;86.85;16.70;;;2.60;99.90;;;;;;5111536;28;20367;-72
2021/11/13 04:03:07;;;;;;;58.13;15.77;;;2.60;99.90;;;;;;5104009;28;20077;-72
2021/11/13 04:05:32;;;;;;;46.00;16.75;;;2.60;99.90;;;;;;5105652;28;20051;-72
2021/11/13 04:07:58;;;;;;;79.40;16.08;;;2.60;99.90;;;;;;5110085;28;20027;-72
2021/11/13 04:10:25;;;;;;;50.97;15.57;;;2.60;99.90;;;;;;5107912;28;20027;-72
2021/11/13 04:12:51;;;;;;;43.33;15.38;;;2.60;99.90;;;;;;5108714;28;20031;-72
2021/11/13 04:15:18;;;;;;;32.55;14.35;;;2.60;99.90;;;;;;5111332;28;20023;-72
2021/11/13 04:17:44;;;;;;;40.70;14.75;;;2.60;99.90;;;;;;5110994;28;20023;-72
2021/11/13 04:20:11;;;;;;;69.50;15.85;;;2.60;99.90;;;;;;5109940;28;20100;-72
2021/11/13 04:22:38;;;;;;;127.90;16.65;;;2.60;99.90;;;;;;5105466;28;20472;-72
2021/11/13 04:25:05;;;;;;;44.95;15.93;;;2.50;99.90;;;;;;5107660;28;20016;-72
2021/11/13 04:27:30;;;;;;;95.57;16.33;;;2.50;99.90;;;;;;5103593;28;20103;-72
2021/11/13 04:29:56;;;;;;;83.63;16.02;;;2.50;99.90;;;;;;5095897;28;20107;-72
2021/11/13 04:32:21;;;;;;;69.70;16.45;;;2.50;99.90;;;;;;5098593;28;20064;-72
2021/11/13 04:37:22;;;;;;;32.95;15.35;;;2.50;99.90;;;;;;5110998;28;20034;-71
2021/11/13 04:39:49;;;;;;;37.97;16.23;;;2.50;99.90;;;;;;5110769;28;20071;-71
2021/11/13 04:42:16;;;;;;;35.30;17.15;;;2.40;99.90;;;;;;5109385;28;20122;-72
2021/11/13 04:44:43;;;;;;;42.40;16.25;;;2.40;99.90;;;;;;5108169;28;20118;-72
2021/11/13 04:47:09;;;;;;;63.38;15.80;;;2.50;99.90;;;;;;5110652;28;20038;-72
2021/11/13 04:49:34;;;;;;;45.25;16.70;;;2.50;99.90;;;;;;5109662;28;20534;-72
2021/11/13 04:52:01;;;;;;;63.60;16.50;;;2.40;99.90;;;;;;5090733;28;20024;-72
2021/11/13 04:54:27;;;;;;;33.88;16.67;;;2.50;99.90;;;;;;5106855;28;20035;-72
2021/11/13 04:56:53;;;;;;;48.03;16.98;;;2.50;99.90;;;;;;5099523;28;20020;-72
2021/11/13 04:59:20;;;;;;;34.00;16.15;;;2.50;99.90;;;;;;5095326;28;20022;-72
2021/11/13 05:01:46;;;;;;;36.60;16.25;;;2.50;99.90;;;;;;5106897;28;20030;-72
2021/11/13 05:04:11;;;;;;;36.42;17.10;;;2.50;99.90;;;;;;5109729;28;20390;-72
2021/11/13 05:06:37;;;;;;;41.28;17.17;;;2.50;99.90;;;;;;5110252;28;20030;-72
2021/11/13 05:09:03;;;;;;;34.35;16.83;;;2.50;99.90;;;;;;5122396;22;20118;-68
2021/11/13 05:11:28;;;;;;;36.75;17.17;;;2.50;99.90;;;;;;5108826;28;20024;-68
2021/11/13 05:13:54;;;;;;;35.10;16.85;;;2.50;99.90;;;;;;5109259;28;20095;-71
2021/11/13 05:16:20;;;;;;;30.88;16.85;;;2.60;99.90;;;;;;5108572;28;20360;-68
2021/11/13 05:18:46;;;;;;;30.20;15.95;;;2.60;99.90;;;;;;5110458;28;20020;-67
2021/11/13 05:21:12;;;;;;;36.90;17.08;;;2.60;99.90;;;;;;5110227;28;20428;-68
2021/11/13 05:23:39;;;;;;;34.60;17.58;;;2.60;99.90;;;;;;5106667;28;20023;-68
2021/11/13 05:26:04;;;;;;;36.15;17.52;;;2.60;99.90;;;;;;5112543;28;20028;-68
2021/11/13 05:28:30;;;;;;;39.33;17.80;;;2.60;99.90;;;;;;5110461;28;20034;-68
2021/11/13 05:30:56;;;;;;;36.72;17.88;;;2.60;99.90;;;;;;5115146;28;20038;-68
2021/11/13 05:33:23;;;;;;;33.28;17.02;;;2.60;99.90;;;;;;5109489;28;20355;-68
2021/11/13 05:35:50;;;;;;;33.72;17.02;;;2.70;99.90;;;;;;5109709;28;20038;-68
2021/11/13 05:38:15;;;;;;;35.50;18.30;;;2.70;99.90;;;;;;5112114;28;20044;-68
2021/11/13 05:40:41;;;;;;;36.83;17.15;;;2.70;99.90;;;;;;5113487;28;20031;-68
2021/11/13 05:43:07;;;;;;;36.08;16.88;;;2.70;99.90;;;;;;5113125;28;20023;-69
2021/11/13 05:45:32;;;;;;;35.05;18.02;;;2.80;99.90;;;;;;5112618;27;20028;-68
2021/11/13 05:47:58;;;;;;;36.65;17.02;;;2.80;99.90;;;;;;5114259;28;20091;-68
2021/11/13 05:50:24;;;;;;;43.58;17.55;;;2.80;99.90;;;;;;5113809;28;20040;-69
2021/11/13 05:52:51;;;;;;;38.67;16.52;;;2.80;99.90;;;;;;5112835;28;20028;-68
2021/11/13 05:55:17;;;;;;;40.05;17.52;;;2.80;99.90;;;;;;5113423;28;20144;-68
2021/11/13 05:57:43;;;;;;;35.55;16.40;;;2.80;99.90;;;;;;5113642;28;20102;-68
2021/11/13 06:00:13;;;;;;;37.65;17.38;;;2.80;99.90;;;;;;5113831;27;20023;-68
2021/11/13 06:02:40;;;;;;;34.97;17.25;;;2.80;99.90;;;;;;5112660;28;20379;-68
2021/11/13 06:05:06;;;;;;;36.17;17.00;;;2.90;99.90;;;;;;5113307;28;20023;-68
2021/11/13 06:07:32;;;;;;;37.55;18.00;;;2.80;99.90;;;;;;5113920;27;20065;-68
2021/11/13 06:09:58;;;;;;;35.47;16.98;;;2.80;99.90;;;;;;5112581;28;20023;-68
2021/11/13 06:12:24;;;;;;;31.35;17.08;;;2.80;99.90;;;;;;5113361;28;20077;-69
2021/11/13 06:14:49;;;;;;;33.58;16.88;;;2.80;99.90;;;;;;5112240;28;20046;-68
2021/11/13 06:17:15;;;;;;;32.85;17.27;;;2.80;99.90;;;;;;5113622;28;20028;-69
2021/11/13 06:19:41;;;;;;;34.28;16.80;;;2.80;99.90;;;;;;5112919;28;20027;-68
2021/11/13 06:22:07;;;;;;;33.50;16.33;;;2.70;99.90;;;;;;5112603;28;20020;-67
2021/11/13 06:24:32;;;;;;;27.88;16.00;;;2.70;99.90;;;;;;5108609;28;20164;-68
2021/11/13 06:26:58;;;;;;;29.98;16.50;;;2.70;99.90;;;;;;5114343;27;20039;-69
2021/11/13 06:29:24;;;;;;;33.33;16.15;;;2.70;99.90;;;;;;5113486;28;20020;-67
2021/11/13 06:31:49;;;;;;;27.30;14.77;;;2.70;99.90;;;;;;5113641;28;20107;-68
2021/11/13 06:34:15;;;;;;;24.00;13.98;;;2.70;99.90;;;;;;5112516;28;20080;-67
2021/11/13 06:36:41;;;;;;;20.65;13.27;;;2.60;99.90;;;;;;5113049;28;20024;-68
2021/11/13 06:39:07;;;;;;;21.02;12.90;;;2.70;99.90;;;;;;5113373;28;20389;-68
2021/11/13 06:41:33;;;;;;;19.52;12.10;;;2.70;99.90;;;;;;5112685;27;20031;-69
2021/11/13 06:43:58;;;;;;;17.00;11.52;;;2.70;99.90;;;;;;5111642;28;20024;-68
2021/11/13 06:46:25;;;;;;;18.55;11.23;;;2.70;99.90;;;;;;5113610;27;20391;-67
2021/11/13 06:48:50;;;;;;;16.73;11.02;;;2.70;99.90;;;;;;5112193;28;20075;-66
2021/11/13 06:51:16;;;;;;;16.27;10.40;;;2.70;99.90;;;;;;5112868;28;20027;-66
2021/11/13 06:53:42;;;;;;;18.92;11.18;;;2.70;99.90;;;;;;5111560;28;20119;-68
2021/11/13 06:56:08;;;;;;;17.02;10.55;;;2.70;99.90;;;;;;5112189;28;20031;-68
2021/11/13 06:58:35;;;;;;;15.90;11.02;;;2.70;99.90;;;;;;5112510;28;20023;-67
2021/11/13 07:01:00;;;;;;;14.57;10.18;;;2.70;99.90;;;;;;5111191;27;20114;-67
2021/11/13 07:03:26;;;;;;;24.60;14.88;;;2.80;99.90;;;;;;5111764;28;20062;-67
2021/11/13 07:05:52;;;;;;;25.15;14.38;;;2.80;99.90;;;;;;5112148;28;20027;-68
2021/11/13 07:08:17;;;;;;;19.52;12.13;;;2.90;99.90;;;;;;5111319;28;20020;-67
2021/11/13 07:10:43;;;;;;;17.65;12.07;;;2.90;99.90;;;;;;5111193;28;20028;-68
2021/11/13 07:13:09;;;;;;;20.23;12.60;;;3.00;99.90;;;;;;5110480;27;20040;-67
2021/11/13 07:15:35;;;;;;;20.48;11.75;;;3.00;99.90;;;;;;5132596;27;20091;-68
2021/11/13 07:18:02;;;;;;;19.48;12.50;;;3.00;99.90;;;;;;5125158;27;20459;-68
2021/11/13 07:20:29;;;;;;;18.80;12.43;;;3.10;99.90;;;;;;5112124;28;20077;-68
2021/11/13 07:22:56;;;;;;;21.63;12.63;;;3.10;99.90;;;;;;5113453;27;20035;-68
2021/11/13 07:25:22;;;;;;;19.98;13.05;;;3.20;99.90;;;;;;5103236;28;20114;-67
2021/11/13 07:27:48;;;;;;;18.92;12.63;;;3.20;99.90;;;;;;5112120;28;20023;-68
2021/11/13 07:30:20;;;;;;;18.25;11.65;;;3.30;99.90;;;;;;5130023;27;20089;-68
2021/11/13 07:32:48;;;;;;;13.05;8.75;;;3.30;99.90;;;;;;5132080;27;20019;-68
2021/11/13 07:35:13;;;;;;;16.05;11.32;;;3.30;99.90;;;;;;5115327;27;20023;-68
2021/11/13 07:37:39;;;;;;;18.77;12.05;;;3.40;99.90;;;;;;5112132;28;20399;-68
2021/11/13 07:40:06;;;;;;;21.50;13.00;;;3.40;99.90;;;;;;5111191;28;20472;-69
2021/11/13 07:42:31;;;;;;;22.08;12.48;;;3.40;99.90;;;;;;5111495;28;20068;-67
2021/11/13 07:44:59;;;;;;;20.67;12.85;;;3.40;99.90;;;;;;5129411;27;20447;-68
2021/11/13 07:47:25;;;;;;;20.35;12.82;;;3.40;99.90;;;;;;5118482;27;20019;-68
2021/11/13 07:49:50;;;;;;;20.13;12.82;;;3.50;99.90;;;;;;5112327;28;20107;-68
2021/11/13 07:52:16;;;;;;;24.00;13.38;;;3.50;99.90;;;;;;5111787;28;20046;-68
2021/11/13 07:54:42;;;;;;;20.70;13.10;;;3.50;99.90;;;;;;5110536;28;20054;-68
2021/11/13 07:57:08;;;;;;;19.20;12.00;;;3.50;99.90;;;;;;5114619;27;20527;-67
2021/11/13 07:59:35;;;;;;;19.05;12.25;;;3.50;99.90;;;;;;5112323;27;20391;-68
2021/11/13 08:02:01;;;;;;;20.65;13.60;;;3.50;99.90;;;;;;5111583;28;20119;-69
2021/11/13 08:04:27;;;;;;;21.60;12.77;;;3.50;99.90;;;;;;5111008;28;20027;-69
2021/11/13 08:06:53;;;;;;;17.73;11.63;;;3.60;99.90;;;;;;5111760;28;20403;-69
2021/11/13 08:09:19;;;;;;;20.30;12.60;;;3.70;99.90;;;;;;5112902;27;20106;-68
2021/11/13 08:11:44;;;;;;;23.75;13.50;;;3.70;99.90;;;;;;5132257;27;20073;-68
2021/11/13 08:14:10;;;;;;;21.33;12.77;;;3.70;99.90;;;;;;5131552;27;20023;-69
2021/11/13 08:16:36;;;;;;;21.52;12.55;;;3.70;99.90;;;;;;5128632;27;20034;-69
2021/11/13 08:19:02;;;;;;;20.40;12.35;;;3.80;99.90;;;;;;5123475;27;20095;-69
2021/11/13 08:21:27;;;;;;;18.33;12.00;;;3.80;99.90;;;;;;5109995;27;20100;-69
2021/11/13 08:23:53;;;;;;;19.30;13.55;;;3.80;99.90;;;;;;5110280;28;20141;-68
2021/11/13 08:26:20;;;;;;;21.25;13.70;;;3.80;99.90;;;;;;5110700;28;20039;-68
2021/11/13 08:28:45;;;;;;;19.08;12.35;;;3.90;99.90;;;;;;5110757;28;20019;-69
2021/11/13 08:31:11;;;;;;;18.30;11.98;;;3.90;99.90;;;;;;5102985;28;20028;-69
2021/11/13 08:33:36;;;;;;;19.48;12.60;;;3.90;99.90;;;;;;5100750;28;20034;-70
2021/11/13 08:36:03;;;;;;;19.17;12.10;;;3.80;99.90;;;;;;5098758;28;20580;-70
2021/11/13 08:38:28;;;;;;;22.45;13.15;;;3.80;99.90;;;;;;5096712;27;20055;-70
2021/11/13 08:40:57;;;;;;;20.33;12.50;;;3.80;99.90;;;;;;5131875;27;20047;-70
2021/11/13 08:43:23;;;;;;;19.35;11.55;;;3.80;99.90;;;;;;5105104;27;20129;-70
2021/11/13 08:45:49;;;;;;;20.52;13.05;;;3.80;99.90;;;;;;5109472;27;20130;-70
2021/11/13 08:48:16;;;;;;;19.85;12.30;;;3.80;99.90;;;;;;5105949;28;20111;-69
2021/11/13 08:50:43;;;;;;;18.77;11.73;;;3.80;99.90;;;;;;5107377;28;20113;-70
2021/11/13 08:53:09;;;;;;;21.52;12.93;;;3.90;99.90;;;;;;5108499;28;20328;-71
2021/11/13 08:55:38;;;;;;;19.40;12.07;;;4.00;99.90;;;;;;5113000;28;20035;-71
2021/11/13 08:58:05;;;;;;;23.20;13.40;;;4.00;99.90;;;;;;5099918;27;20020;-69
2021/11/13 09:00:36;;;;;;;17.92;12.60;;;4.10;99.90;;;;;;5107299;28;20024;-70
2021/11/13 09:03:08;;;;;;;19.73;12.00;;;4.10;99.90;;;;;;5108950;28;20111;-70
2021/11/13 09:05:34;;;;;;;20.25;12.55;;;4.20;99.90;;;;;;5103512;28;20330;-69
2021/11/13 09:08:01;;;;;;;17.88;11.88;;;4.30;99.90;;;;;;5097535;28;20040;-68
2021/11/13 09:10:28;;;;;;;18.42;11.82;;;4.30;99.90;;;;;;5091507;28;20031;-69
2021/11/13 09:12:53;;;;;;;17.23;11.77;;;4.40;99.90;;;;;;5112371;27;20046;-69
2021/11/13 09:15:25;;;;;;;16.70;11.18;;;4.40;99.90;;;;;;5114759;28;20028;-70
2021/11/13 09:17:51;;;;;;;16.83;11.18;;;4.50;99.90;;;;;;5114403;28;20023;-69
2021/11/13 09:20:18;;;;;;;19.63;11.52;;;4.50;99.90;;;;;;5114717;28;20383;-70
2021/11/13 09:22:44;;;;;;;18.52;12.05;;;4.60;99.90;;;;;;5111912;28;20019;-69
2021/11/13 09:25:10;;;;;;;19.50;11.82;;;4.60;99.90;;;;;;5107722;27;20032;-71
2021/11/13 09:27:38;;;;;;;20.17;12.82;;;4.70;99.90;;;;;;5111702;28;20057;-69
2021/11/13 09:30:06;;;;;;;16.85;11.55;;;4.70;99.90;;;;;;5108174;27;20032;-69
2021/11/13 09:32:33;;;;;;;20.17;11.90;;;4.80;99.90;;;;;;5105166;28;20031;-68
2021/11/13 09:34:58;;;;;;;20.02;12.35;;;4.90;99.90;;;;;;5116053;27;20114;-68
2021/11/13 09:37:24;;;;;;;18.90;11.93;;;4.80;99.90;;;;;;5114152;28;20110;-68
2021/11/13 09:39:50;;;;;;;19.42;13.45;;;4.80;99.90;;;;;;5104200;28;20028;-68
2021/11/13 09:42:17;;;;;;;21.25;13.35;;;4.80;99.90;;;;;;5113146;27;20051;-68
2021/11/13 09:44:43;;;;;;;18.75;12.70;;;4.90;99.90;;;;;;5104440;28;20055;-68
2021/11/13 09:47:10;;;;;;;20.10;12.85;;;4.90;99.90;;;;;;5114487;27;20502;-67
2021/11/13 09:49:35;;;;;;;19.92;12.95;;;4.90;99.90;;;;;;5105883;28;20047;-68
2021/11/13 09:52:02;;;;;;;21.23;13.55;;;4.90;99.90;;;;;;5114172;28;20055;-68
2021/11/13 09:54:29;;;;;;;23.75;14.45;;;4.90;99.90;;;;;;5117518;27;20023;-68
2021/11/13 09:56:55;;;;;;;20.45;14.05;;;4.80;99.90;;;;;;5114192;28;20023;-68
2021/11/13 09:59:20;;;;;;;21.60;13.43;;;4.90;99.90;;;;;;5113626;28;20028;-68
2021/11/13 10:01:46;;;;;;;21.08;13.27;;;4.90;99.90;;;;;;5114277;28;20502;-68
2021/11/13 10:04:12;;;;;;;25.17;13.30;;;4.90;99.90;;;;;;5120964;27;20023;-67
2021/11/13 10:06:38;;;;;;;23.25;13.45;;;4.90;99.90;;;;;;5134915;27;20143;-67
2021/11/13 10:09:03;;;;;;;21.35;12.68;;;5.00;99.90;;;;;;5105644;27;20397;-68
2021/11/13 10:11:29;;;;;;;18.13;12.13;;;5.00;99.90;;;;;;5112378;28;20091;-68
2021/11/13 10:13:59;;;;;;;18.98;12.07;;;5.10;99.90;;;;;;5108572;28;20023;-69
2021/11/13 10:16:38;;;;;;;18.17;12.02;;;5.20;99.90;;;;;;5104517;28;20477;-69
2021/11/13 10:19:16;;;;;;;16.77;11.95;;;5.30;99.90;;;;;;5107870;28;20496;-66
2021/11/13 10:21:44;;;;;;;15.40;11.40;;;5.40;99.90;;;;;;5109368;27;20029;-68
2021/11/13 10:24:17;;;;;;;16.75;10.65;;;5.50;99.90;;;;;;5108062;28;20020;-67
2021/11/13 10:26:44;;;;;;;;;;;5.60;99.90;;;;;;5110348;28;20020;-68
2021/11/13 10:29:23;;;;;;;16.23;10.10;;;5.70;99.90;;;;;;5110637;28;19911;-68
2021/11/13 10:31:58;;;;;;;13.15;9.35;;;5.80;99.90;;;;;;5103137;28;20031;-68
2021/11/13 10:34:32;;;;;;;14.00;9.30;;;5.90;99.90;;;;;;5110436;28;20412;-67
2021/11/13 10:37:04;;;;;;;16.08;10.27;;;6.00;99.90;;;;;;5113403;28;20028;-67
2021/11/13 10:39:34;;;;;;;12.85;8.80;;;6.10;99.90;;;;;;5114158;27;20384;-66
2021/11/13 10:42:01;;;;;;;14.02;8.95;;;6.20;99.90;;;;;;5113458;28;20058;-68
2021/11/13 10:44:33;;;;;;;12.55;8.55;;;6.30;99.90;;;;;;5108686;28;20505;-67
2021/11/13 10:47:11;;;;;;;12.30;8.52;;;6.40;99.90;;;;;;5102978;28;20118;-69
2021/11/13 10:49:37;;;;;;;12.77;8.57;;;6.40;99.90;;;;;;5101835;27;20031;-67
2021/11/13 10:52:05;;;;;;;13.27;9.52;;;6.50;99.90;;;;;;5098444;27;20463;-67
2021/11/13 10:54:31;;;;;;;12.45;8.63;;;6.50;99.90;;;;;;5105357;27;20027;-69
2021/11/13 10:57:00;;;;;;;10.05;7.88;;;6.60;99.90;;;;;;5110394;28;20027;-69
2021/11/13 10:59:27;;;;;;;13.88;9.00;;;6.60;99.90;;;;;;5110192;28;20095;-68
2021/11/13 11:02:00;;;;;;;11.18;8.38;;;6.70;99.90;;;;;;5105341;28;20476;-68
2021/11/13 11:04:28;;;;;;;12.00;8.15;;;6.70;99.90;;;;;;5098052;27;20375;-67
2021/11/13 11:07:12;;;;;;;12.32;8.35;;;6.70;99.90;;;;;;5101028;28;20106;-68
2021/11/13 11:09:41;;;;;;;10.73;8.10;;;6.80;99.90;;;;;;5109739;28;20042;-68
2021/11/13 11:12:18;;;;;;;11.88;8.55;;;6.90;99.90;;;;;;5099326;27;20111;-67
2021/11/13 11:14:47;;;;;;;10.48;8.07;;;6.90;99.90;;;;;;5105288;27;20133;-68
2021/11/13 11:17:24;;;;;;;11.82;7.75;;;7.00;99.90;;;;;;5102730;27;20024;-69
2021/11/13 11:19:52;;;;;;;11.23;7.38;;;7.10;99.90;;;;;;5123074;27;20020;-68
2021/11/13 11:22:27;;;;;;;9.50;6.57;;;7.10;99.90;;;;;;5104469;28;20448;-68
2021/11/13 11:25:00;;;;;;;8.98;6.45;;;7.20;99.90;;;;;;5110400;28;20491;-69
2021/11/13 11:27:37;;;;;;;9.07;6.68;;;7.20;99.90;;;;;;5109187;28;20031;-69
2021/11/13 11:30:06;;;;;;;11.10;7.47;;;7.20;99.90;;;;;;5108241;27;20118;-69
2021/11/13 11:32:51;;;;;;;9.55;7.20;;;7.30;99.90;;;;;;5108968;28;20032;-67
2021/11/13 11:35:22;;;;;;;13.27;8.27;;;7.40;99.90;;;;;;5108744;28;20046;-68
2021/11/13 11:37:50;;;;;;;11.48;8.60;;;7.40;99.90;;;;;;5096872;28;20031;-68
2021/11/13 11:40:25;;;;;;;14.60;8.80;;;7.50;99.90;;;;;;5111243;28;20070;-68
2021/11/13 11:42:51;;;;;;;12.88;8.52;;;7.60;99.90;;;;;;5108527;28;20016;-68
2021/11/13 11:45:23;;;;;;;13.73;8.88;;;7.60;99.90;;;;;;5112730;27;20054;-69
2021/11/13 11:47:51;;;;;;;13.20;8.53;;;7.70;99.90;;;;;;5106620;28;20099;-69
2021/11/13 11:50:26;;;;;;;15.50;8.77;;;7.80;99.90;;;;;;5107776;28;20024;-69
2021/11/13 11:53:06;;;;;;;11.55;8.60;;;7.80;99.90;;;;;;5103089;28;20118;-69
2021/11/13 11:55:32;;;;;;;12.40;8.50;;;7.80;99.90;;;;;;5112101;27;20015;-68
2021/11/13 11:58:04;;;;;;;12.35;7.03;;;7.90;99.90;;;;;;5108243;28;20071;-69
2021/11/13 12:00:32;;;;;;;11.52;7.22;;;8.00;99.90;;;;;;5111340;28;20373;-68
2021/11/13 12:03:02;;;;;;;11.48;7.85;;;8.00;99.90;;;;;;5110885;27;20015;-69
2021/11/13 12:05:34;;;;;;;10.85;7.15;;;8.10;99.90;;;;;;5104672;28;20020;-68
2021/11/13 12:08:18;;;;;;;10.13;6.77;;;8.10;99.90;;;;;;5092025;28;20031;-70
2021/11/13 12:10:45;;;;;;;11.93;7.40;;;8.10;99.90;;;;;;5110626;28;20757;-70
2021/11/13 12:13:18;;;;;;;10.40;7.10;;;8.20;99.90;;;;;;5109087;28;20030;-67
2021/11/13 12:15:49;;;;;;;10.73;7.15;;;8.20;99.90;;;;;;5100644;28;20025;-69
2021/11/13 12:18:21;;;;;;;9.57;6.93;;;8.30;99.90;;;;;;5101877;28;20106;-70
2021/11/13 12:20:52;;;;;;;11.32;7.18;;;8.30;99.90;;;;;;5107215;27;20054;-67
2021/11/13 12:23:29;;;;;;;11.10;7.35;;;8.40;99.90;;;;;;5101849;28;20024;-69
2021/11/13 12:25:59;;;;;;;10.30;7.05;;;8.40;99.90;;;;;;5104560;28;20034;-69
2021/11/13 12:28:26;;;;;;;10.27;7.13;;;8.40;99.90;;;;;;5110437;28;20023;-70
2021/11/13 12:31:08;;;;;;;11.38;7.20;;;8.40;99.90;;;;;;5111498;28;20031;-69
2021/11/13 12:33:34;;;;;;;11.52;7.35;;;8.50;99.90;;;;;;5101414;28;20077;-68
2021/11/13 12:36:05;;;;;;;10.75;6.15;;;8.40;99.90;;;;;;5094193;28;20031;-69
2021/11/13 12:38:31;;;;;;;9.38;6.40;;;8.40;99.90;;;;;;5105669;27;20119;-70
2021/11/13 12:41:09;;;;;;;9.65;6.90;;;8.50;99.90;;;;;;5110109;28;20490;-68